Time;durP1;ratioP1;P1;durP2;ratioP2;P2;SDS_P1;SDS_P2;PMS_P1;PMS_P2;Temp;Humidity;BMP_temperature;BMP_pressure;BME280_temperature;BME280_humidity;BME280_pressure;Samples;Min_cycle;Max_cycle;Signal;HPM_P1;HPM_P2
2022/10/19 00:01:06;;;;;;;6.78;2.55;;;;;;;16.15;48.91;100178.12;4446340;32;33482;-66
2022/10/19 00:03:34;;;;;;;;;;;;;;;16.18;48.47;100185.91;4440113;32;33951;-64
2022/10/19 00:06:13;;;;;;;3.42;2.53;;;;;;;16.15;48.75;100178.12;4449206;32;34225;-64
2022/10/19 00:08:42;;;;;;;2.90;2.15;;;;;;;15.98;49.19;100179.63;4445792;32;34916;-64
2022/10/19 00:11:10;;;;;;;4.87;2.55;;;;;;;15.91;49.26;100176.63;4439512;32;33588;-64
2022/10/19 00:13:38;;;;;;;4.65;2.72;;;;;;;15.77;49.51;100171.66;4444510;32;33726;-66
2022/10/19 00:16:12;;;;;;;4.18;3.03;;;;;;;15.57;50.40;100174.25;4437091;32;32305;-64
2022/10/19 00:18:42;;;;;;;5.43;3.10;;;;;;;15.64;50.18;100165.59;4445971;32;35028;-66
2022/10/19 00:21:12;;;;;;;3.92;2.80;;;;;;;15.65;50.14;100164.59;4443316;32;34943;-65
2022/10/19 00:23:41;;;;;;;3.00;2.30;;;;;;;15.56;50.28;100150.09;4450441;32;33968;-65
2022/10/19 00:26:08;;;;;;;6.07;2.40;;;;;;;15.58;50.29;100156.22;4428205;32;32501;-66
2022/10/19 00:28:36;;;;;;;3.87;2.75;;;;;;;15.39;50.75;100165.06;4448306;32;32663;-67
2022/10/19 00:31:10;;;;;;;5.93;3.03;;;;;;;15.39;50.85;100159.69;4449817;32;34297;-65
2022/10/19 00:33:38;;;;;;;5.20;2.50;;;;;;;15.49;50.34;100157.03;4437830;32;34941;-66
2022/10/19 00:36:17;;;;;;;5.85;3.60;;;;;;;15.44;50.30;100152.06;4439518;32;36152;-65
2022/10/19 00:38:45;;;;;;;6.55;2.47;;;;;;;15.50;50.22;100154.16;4440582;32;34704;-68
2022/10/19 00:41:13;;;;;;;8.93;3.20;;;;;;;15.33;50.34;100149.44;4438578;32;33685;-65
2022/10/19 00:43:59;;;;;;;10.60;3.22;;;;;;;15.70;49.49;100146.19;4427253;32;33460;-69
2022/10/19 00:46:29;;;;;;;5.95;2.65;;;;;;;15.80;48.96;100136.28;4440946;32;34124;-65
2022/10/19 00:49:01;;;;;;;8.65;3.75;;;;;;;15.64;49.25;100139.47;4451043;32;33924;-65
2022/10/19 00:51:32;;;;;;;16.67;3.45;;;;;;;15.77;49.02;100129.31;4433186;32;33553;-67
2022/10/19 00:54:01;;;;;;;3.42;2.85;;;;;;;15.89;48.55;100116.56;4451353;32;33958;-66
2022/10/19 00:56:29;;;;;;;4.15;3.58;;;;;;;15.80;48.94;100112.84;4449706;32;33938;-68
2022/10/19 00:58:57;;;;;;;5.35;3.33;;;;;;;16.02;48.32;100113.59;4441893;32;33502;-70
2022/10/19 01:01:26;;;;;;;3.75;2.47;;;;;;;16.01;48.31;100109.16;4438706;32;33698;-67
2022/10/19 01:03:53;;;;;;;5.70;4.15;;;;;;;16.13;48.01;100110.75;4427373;32;33903;-67
2022/10/19 01:06:22;;;;;;;4.55;3.62;;;;;;;16.13;48.16;100110.75;4442276;32;33757;-63
2022/10/19 01:08:49;;;;;;;4.78;3.15;;;;;;;16.28;47.81;100103.06;4438945;32;34072;-65
2022/10/19 01:11:43;;;;;;;3.90;2.20;;;;;;;16.39;47.83;100102.91;4444167;32;32074;-64
2022/10/19 01:14:32;;;;;;;3.40;2.47;;;;;;;16.41;47.98;100102.78;4448567;32;33925;-66
2022/10/19 01:17:17;;;;;;;6.45;3.00;;;;;;;16.08;48.57;100096.78;4451784;32;34255;-65
2022/10/19 01:20:09;;;;;;;6.12;2.95;;;;;;;16.22;48.21;100096.38;4443077;32;33954;-64
2022/10/19 01:22:48;;;;;;;4.65;3.67;;;;;;;16.38;47.93;100087.72;4441442;32;34216;-64
2022/10/19 01:25:36;;;;;;;4.70;2.47;;;;;;;16.36;48.22;100095.09;4440772;32;33807;-64
2022/10/19 01:28:13;;;;;;;4.37;3.00;;;;;;;16.40;48.07;100091.09;4442292;32;34884;-65
2022/10/19 01:31:24;;;;;;;5.57;3.47;;;;;;;16.26;48.41;100094.25;4437952;32;35015;-65
2022/10/19 01:33:54;;;;;;;5.25;2.90;;;;;;;16.29;48.99;100091.28;4420036;32;33452;-65
2022/10/19 01:36:59;;;;;;;4.43;2.92;;;;;;;16.54;48.73;100089.81;4411740;32;33634;-67
2022/10/19 01:39:44;;;;;;;5.95;3.47;;;;;;;16.49;49.08;100079.44;4416411;32;33593;-65
2022/10/19 01:42:30;;;;;;;12.52;3.58;;;;;;;16.60;48.91;100070.34;4448713;32;34789;-64
2022/10/19 01:45:03;;;;;;;8.20;3.83;;;;;;;16.64;49.00;100070.91;4429374;32;33616;-67
2022/10/19 01:47:37;;;;;;;4.75;2.75;;;;;;;16.77;48.84;100066.91;4441329;32;32340;-65
2022/10/19 01:50:15;;;;;;;4.45;3.08;;;;;;;16.95;48.38;100055.31;4442971;32;34191;-66
2022/10/19 01:52:43;;;;;;;9.40;3.35;;;;;;;17.09;48.16;100056.69;4446762;32;32480;-66
2022/10/19 01:55:12;;;;;;;7.82;3.47;;;;;;;17.12;47.80;100057.25;4441209;32;34206;-66
2022/10/19 01:57:45;;;;;;;5.80;3.80;;;;;;;17.07;47.72;100048.72;4426539;32;34981;-64
2022/10/19 02:00:14;;;;;;;7.90;3.72;;;;;;;17.11;47.82;100054.66;4447685;32;35288;-64
2022/10/19 02:02:48;;;;;;;7.45;4.10;;;;;;;17.11;47.82;100065.50;4449533;32;34331;-65
2022/10/19 02:05:19;;;;;;;6.72;5.35;;;;;;;17.19;47.37;100069.16;4426145;32;32998;-66
2022/10/19 02:07:55;;;;;;;13.15;5.03;;;;;;;16.78;47.99;100075.84;4437146;32;33679;-65
2022/10/19 02:10:23;;;;;;;10.98;4.20;;;;;;;16.64;48.45;100077.16;4436758;32;34972;-64
2022/10/19 02:12:52;;;;;;;5.03;2.67;;;;;;;16.82;47.96;100079.12;4443573;32;33838;-65
2022/10/19 02:15:22;;;;;;;4.60;3.62;;;;;;;16.65;48.50;100069.88;4441269;32;33072;-67
2022/10/19 02:17:52;;;;;;;5.80;3.90;;;;;;;16.49;49.08;100079.44;4435161;32;32888;-65
2022/10/19 02:20:20;;;;;;;5.78;4.28;;;;;;;16.60;48.98;100073.03;4443618;32;34219;-64
2022/10/19 02:22:47;;;;;;;7.72;4.45;;;;;;;16.59;49.17;100076.72;4449498;32;34028;-65
2022/10/19 02:25:15;;;;;;;4.78;4.00;;;;;;;16.25;50.01;100070.94;4450392;32;33466;-65
2022/10/19 02:27:43;;;;;;;5.85;3.72;;;;;;;16.32;49.96;100072.06;4443307;32;33700;-63
2022/10/19 02:30:12;;;;;;;5.55;3.90;;;;;;;16.56;49.24;100071.59;4430407;32;34225;-66
2022/10/19 02:32:40;;;;;;;5.75;3.83;;;;;;;16.36;49.60;100080.75;4434506;32;34027;-65
2022/10/19 02:35:09;;;;;;;6.47;3.25;;;;;;;16.51;49.32;100077.44;4447114;32;33383;-64
2022/10/19 02:37:36;;;;;;;9.43;3.95;;;;;;;16.57;49.00;100080.59;4448206;32;34943;-67
2022/10/19 02:40:05;;;;;;;6.85;3.95;;;;;;;16.27;49.83;100077.87;4442492;32;33900;-64
2022/10/19 02:42:42;;;;;;;7.68;4.28;;;;;;;16.56;49.28;100074.31;4446219;32;35000;-64
2022/10/19 02:45:26;;;;;;;6.18;4.70;;;;;;;16.65;49.03;100065.31;4446147;32;33613;-64
2022/10/19 02:47:59;;;;;;;9.88;3.97;;;;;;;16.74;48.69;100066.31;4432697;32;33852;-64
2022/10/19 02:50:27;;;;;;;8.40;4.72;;;;;;;16.78;48.76;100075.84;4425663;32;35032;-66
2022/10/19 02:52:57;;;;;;;9.25;5.93;;;;;;;16.82;48.74;100071.88;4448178;32;33882;-64
2022/10/19 02:55:25;;;;;;;6.43;4.35;;;;;;;16.70;49.04;100075.72;4438569;32;34114;-64
2022/10/19 02:57:53;;;;;;;7.68;4.30;;;;;;;16.77;48.94;100082.28;4442048;32;32698;-64
2022/10/19 03:00:20;;;;;;;4.60;2.80;;;;;;;16.59;49.47;100078.56;4445220;32;35060;-64
2022/10/19 03:02:48;;;;;;;12.68;4.35;;;;;;;16.56;49.76;100074.31;4435562;32;34244;-62
2022/10/19 03:05:16;;;;;;;7.72;4.47;;;;;;;16.67;49.48;100071.44;4443832;32;34183;-65
2022/10/19 03:07:43;;;;;;;5.93;4.37;;;;;;;16.72;49.59;100076.41;4439047;32;33663;-65
2022/10/19 03:10:11;;;;;;;7.03;4.60;;;;;;;16.58;50.06;100071.47;4434162;32;34876;-63
2022/10/19 03:12:38;;;;;;;8.20;4.87;;;;;;;16.67;50.17;100081.41;4440399;32;33748;-63
2022/10/19 03:15:06;;;;;;;9.40;4.78;;;;;;;15.95;52.42;100080.03;4443527;32;34115;-65
2022/10/19 03:17:34;;;;;;;9.80;6.15;;;;;;;15.74;53.57;100085.56;4439573;32;34729;-65
2022/10/19 03:20:03;;;;;;;8.60;5.68;;;;;;;15.23;55.33;100087.38;4438607;32;32503;-70
2022/10/19 03:22:30;;;;;;;8.05;5.05;;;;;;;15.60;54.16;100087.63;4446665;32;33973;-64
2022/10/19 03:24:58;;;;;;;15.90;7.32;;;;;;;15.70;54.05;100089.53;4449142;32;32931;-63
2022/10/19 03:27:25;;;;;;;9.93;6.05;;;;;;;15.17;55.44;100093.31;4440890;32;33586;-64
2022/10/19 03:29:53;;;;;;;11.93;5.20;;;;;;;15.21;54.74;100080.41;4447448;32;33206;-62
2022/10/19 03:32:20;;;;;;;6.70;4.78;;;;;;;16.01;52.78;100088.41;4442781;32;33960;-63
2022/10/19 03:34:48;;;;;;;12.27;7.20;;;;;;;15.45;54.23;100083.63;4447646;32;34712;-63
2022/10/19 03:37:15;;;;;;;11.82;5.78;;;;;;;15.35;54.58;100083.59;4446488;32;35164;-63
2022/10/19 03:39:43;;;;;;;11.70;5.68;;;;;;;15.28;54.53;100086.94;4449702;32;34093;-64
2022/10/19 03:42:10;;;;;;;5.10;3.75;;;;;;;15.36;54.00;100089.81;4443483;32;34195;-63
2022/10/19 03:44:38;;;;;;;10.45;6.25;;;;;;;15.86;52.56;100091.66;4448246;32;33351;-62
2022/10/19 03:47:05;;;;;;;10.18;6.18;;;;;;;15.50;53.25;100096.66;4437896;32;34711;-64
2022/10/19 03:49:33;;;;;;;11.12;7.57;;;;;;;15.64;53.36;100093.59;4448861;32;34076;-63
2022/10/19 03:52:05;;;;;;;5.20;4.37;;;;;;;15.56;53.32;100104.22;4445182;32;35344;-64
2022/10/19 03:54:33;;;;;;;5.55;3.80;;;;;;;15.71;53.09;100097.47;4445402;32;32256;-64
2022/10/19 03:57:00;;;;;;;12.68;5.87;;;;;;;15.74;52.54;100094.50;4449991;32;32127;-64
2022/10/19 03:59:28;;;;;;;8.02;5.28;;;;;;;16.17;51.43;100089.69;4447869;32;33987;-63
2022/10/19 04:01:55;;;;;;;9.25;6.97;;;;;;;16.55;50.12;100088.81;4443893;32;34794;-65
2022/10/19 04:04:23;;;;;;;15.75;5.35;;;;;;;16.58;50.06;100093.09;4442706;32;32154;-63
2022/10/19 04:06:52;;;;;;;11.07;5.78;;;;;;;16.40;49.91;100082.16;4442765;32;33884;-65
2022/10/19 04:09:21;;;;;;;8.25;4.65;;;;;;;16.68;49.56;100093.91;4448790;32;34111;-65
2022/10/19 04:11:49;;;;;;;7.62;5.10;;;;;;;16.53;49.76;100090.81;4446097;32;32126;-63
2022/10/19 04:14:18;;;;;;;9.25;6.32;;;;;;;16.40;49.90;100092.94;4447544;32;33626;-65
2022/10/19 04:17:03;;;;;;;6.55;4.80;;;;;;;15.80;51.34;100099.34;4442483;32;32799;-64
2022/10/19 04:19:30;;;;;;;9.95;5.37;;;;;;;16.18;50.55;100099.50;4445718;32;33793;-65
2022/10/19 04:21:58;;;;;;;10.75;5.85;;;;;;;16.32;50.09;100104.50;4443905;32;35326;-63
2022/10/19 04:24:26;;;;;;;7.18;5.15;;;;;;;15.82;51.08;100112.69;4449705;32;33426;-65
2022/10/19 04:26:54;;;;;;;7.10;5.53;;;;;;;16.00;50.75;100097.50;4443143;32;32864;-64
2022/10/19 04:29:24;;;;;;;9.20;5.95;;;;;;;15.79;51.31;100094.06;4448888;32;33491;-65
2022/10/19 04:31:57;;;;;;;6.85;5.32;;;;;;;15.48;52.40;100095.97;4441730;32;32672;-64
2022/10/19 04:34:25;;;;;;;7.12;5.00;;;;;;;15.37;52.79;100096.91;4441476;32;33249;-63
2022/10/19 04:36:53;;;;;;;13.95;5.32;;;;;;;15.56;52.50;100104.22;4437263;32;32856;-62
2022/10/19 04:39:20;;;;;;;8.27;5.57;;;;;;;15.77;51.86;100098.78;4444723;32;32850;-63
2022/10/19 04:41:48;;;;;;;11.77;6.87;;;;;;;15.87;51.51;100093.38;4435902;32;33983;-64
2022/10/19 04:44:15;;;;;;;9.65;5.72;;;;;;;16.01;51.13;100107.31;4448842;32;33368;-63
2022/10/19 04:46:43;;;;;;;7.07;4.30;;;;;;;16.17;50.68;100098.66;4444656;32;34898;-63
2022/10/19 04:49:10;;;;;;;9.27;5.18;;;;;;;16.22;50.70;100112.59;4442093;32;33925;-65
2022/10/19 04:51:44;;;;;;;5.05;3.70;;;;;;;16.30;50.39;100101.06;4447453;32;33770;-64
2022/10/19 04:54:11;;;;;;;8.82;4.80;;;;;;;15.83;51.74;100099.06;4447247;32;33480;-64
2022/10/19 04:56:39;;;;;;;8.25;5.97;;;;;;;15.49;52.63;100092.28;4439488;32;34086;-63
2022/10/19 04:59:07;;;;;;;4.87;4.25;;;;;;;15.60;52.81;100087.63;4447397;32;32507;-64
2022/10/19 05:01:35;;;;;;;6.85;4.22;;;;;;;15.37;53.49;100088.81;4439764;32;33887;-69
2022/10/19 05:04:03;;;;;;;11.25;4.70;;;;;;;15.53;53.58;100085.59;4446655;32;34462;-65
2022/10/19 05:06:30;;;;;;;11.15;5.37;;;;;;;14.78;56.05;100084.19;4448719;32;35059;-64
2022/10/19 05:08:58;;;;;;;13.27;5.50;;;;;;;14.93;56.36;100076.59;4446778;32;32791;-63
2022/10/19 05:11:26;;;;;;;6.37;4.43;;;;;;;14.60;57.69;100081.22;4444092;32;33117;-63
2022/10/19 05:13:55;;;;;;;10.15;5.53;;;;;;;14.77;57.18;100093.25;4448982;32;32300;-64
2022/10/19 05:16:23;;;;;;;7.80;5.95;;;;;;;15.26;56.16;100105.13;4450738;32;33657;-63
2022/10/19 05:18:55;;;;;;;12.60;5.57;;;;;;;14.63;58.16;100103.38;4444811;32;34062;-64
2022/10/19 05:21:22;;;;;;;7.22;4.57;;;;;;;15.19;56.71;100109.34;4444303;32;34026;-67
2022/10/19 05:23:51;;;;;;;5.80;4.07;;;;;;;15.18;56.90;100107.63;4443416;32;34846;-66
2022/10/19 05:26:23;;;;;;;7.95;5.12;;;;;;;15.37;56.37;100110.41;4442677;32;32599;-68
2022/10/19 05:28:55;;;;;;;8.30;5.75;;;;;;;15.13;57.45;100100.81;4442528;32;32699;-68
2022/10/19 05:31:25;;;;;;;7.22;5.72;;;;;;;15.53;56.32;100110.75;4450849;32;34783;-63
2022/10/19 05:33:54;;;;;;;9.20;6.55;;;;;;;15.33;57.17;100095.50;4447848;32;32124;-67
2022/10/19 05:36:25;;;;;;;6.22;4.40;;;;;;;15.29;57.59;100102.16;4439811;32;33701;-65
2022/10/19 05:38:55;;;;;;;6.97;3.67;;;;;;;15.22;57.92;100109.94;4441806;32;33256;-63
2022/10/19 05:41:24;;;;;;;7.75;5.37;;;;;;;15.54;57.35;100117.00;4442998;32;34146;-62
2022/10/19 05:43:55;;;;;;;8.45;5.35;;;;;;;15.61;56.87;100120.84;4444625;32;33411;-63
2022/10/19 05:46:24;;;;;;;10.07;5.78;;;;;;;15.39;57.54;100111.13;4442411;32;33838;-62
2022/10/19 05:48:51;;;;;;;11.48;5.65;;;;;;;15.56;57.42;100123.09;4447444;32;34051;-64
2022/10/19 05:51:20;;;;;;;8.55;6.20;;;;;;;15.43;57.84;100120.66;4441763;32;33618;-62
2022/10/19 05:53:48;;;;;;;9.13;5.93;;;;;;;15.73;57.10;100121.59;4441207;32;33347;-63
2022/10/19 05:56:19;;;;;;;13.25;5.80;;;;;;;15.62;57.53;100127.94;4437787;32;34203;-62
2022/10/19 05:58:47;;;;;;;4.87;3.60;;;;;;;15.74;57.26;100134.12;4440924;32;33727;-63
2022/10/19 06:01:17;;;;;;;8.07;4.57;;;;;;;15.41;58.41;100132.56;4441496;32;34945;-63
2022/10/19 06:03:46;;;;;;;14.40;7.40;;;;;;;15.14;59.26;100140.25;4443071;32;33886;-63
2022/10/19 06:06:14;;;;;;;10.07;5.47;;;;;;;15.39;58.78;100135.41;4449963;32;33944;-62
2022/10/19 06:08:41;;;;;;;10.57;6.32;;;;;;;15.65;58.04;100137.62;4446225;32;34077;-63
2022/10/19 06:11:11;;;;;;;7.18;5.07;;;;;;;15.33;59.14;100134.09;4447205;32;34419;-62
2022/10/19 06:13:40;;;;;;;6.35;5.37;;;;;;;15.19;59.87;100141.72;4441984;32;33438;-63
2022/10/19 06:16:08;;;;;;;9.10;6.18;;;;;;;15.58;58.69;100140.88;4449541;32;35136;-63
2022/10/19 06:18:37;;;;;;;5.47;4.43;;;;;;;15.83;57.88;100152.19;4443054;32;34067;-63
2022/10/19 06:21:06;;;;;;;10.00;5.87;;;;;;;15.78;58.18;100141.81;4444408;32;34815;-64
2022/10/19 06:23:34;;;;;;;11.25;5.60;;;;;;;16.05;57.41;100145.69;4447777;32;33339;-62
2022/10/19 06:26:04;;;;;;;5.40;3.45;;;;;;;15.98;57.64;100137.28;4435595;32;32490;-63
2022/10/19 06:28:32;;;;;;;6.97;5.15;;;;;;;16.04;57.67;100147.53;4440521;32;33443;-62
2022/10/19 06:31:00;;;;;;;6.97;4.55;;;;;;;16.18;57.35;100156.22;4443423;32;33485;-63
2022/10/19 06:33:28;;;;;;;10.27;5.90;;;;;;;16.37;57.04;100153.56;4442586;32;33430;-63
2022/10/19 06:36:07;;;;;;;15.85;5.90;;;;;;;16.56;56.78;100155.37;4442464;32;33144;-64
2022/10/19 06:38:35;;;;;;;10.00;7.30;;;;;;;16.60;56.61;100158.66;4437312;32;32709;-63
2022/10/19 06:41:03;;;;;;;6.95;4.12;;;;;;;16.25;57.93;100162.78;4439863;32;33705;-63
2022/10/19 06:43:30;;;;;;;8.18;4.53;;;;;;;16.44;57.32;100164.62;4439947;32;33710;-63
2022/10/19 06:45:58;;;;;;;13.45;5.75;;;;;;;16.69;56.65;100168.59;4443488;32;33606;-64
2022/10/19 06:48:25;;;;;;;7.35;4.75;;;;;;;15.79;59.37;100172.34;4445704;32;34963;-63
2022/10/19 06:50:56;;;;;;;5.93;4.47;;;;;;;16.08;58.96;100172.41;4444751;32;32746;-63
2022/10/19 06:53:24;;;;;;;6.12;3.72;;;;;;;15.89;59.30;100175.06;4445272;32;34592;-63
2022/10/19 06:55:52;;;;;;;8.48;5.43;;;;;;;16.13;58.79;100180.94;4441414;32;33839;-63
2022/10/19 06:58:19;;;;;;;7.18;4.72;;;;;;;16.15;59.22;100184.38;4442930;32;32931;-64
2022/10/19 07:00:56;;;;;;;10.55;6.28;;;;;;;16.28;58.83;100182.25;4443457;32;32589;-62
2022/10/19 07:03:24;;;;;;;11.30;4.57;;;;;;;16.41;58.57;100183.84;4447951;32;33641;-64
2022/10/19 07:05:54;;;;;;;8.23;4.15;;;;;;;16.25;59.34;100201.44;4440677;32;32302;-63
2022/10/19 07:08:22;;;;;;;10.40;3.70;;;;;;;15.57;61.54;100201.22;4436437;32;34077;-64
2022/10/19 07:10:52;;;;;;;4.95;4.00;;;;;;;15.82;61.08;100197.19;4447119;32;33856;-62
2022/10/19 07:13:20;;;;;;;7.47;5.07;;;;;;;15.86;61.25;100208.59;4442554;32;34425;-62
2022/10/19 07:15:48;;;;;;;5.22;4.05;;;;;;;15.65;61.53;100208.62;4449880;32;33882;-63
2022/10/19 07:18:15;;;;;;;7.75;6.00;;;;;;;15.88;61.08;100203.91;4437120;32;33847;-64
2022/10/19 07:20:53;;;;;;;7.80;4.87;;;;;;;15.75;61.14;100203.28;4438371;32;32630;-64
2022/10/19 07:23:20;;;;;;;4.47;3.28;;;;;;;15.57;62.25;100209.31;4449682;32;33398;-62
2022/10/19 07:25:48;;;;;;;12.15;4.95;;;;;;;15.50;62.37;100210.81;4444157;32;32332;-64
2022/10/19 07:28:15;;;;;;;8.38;4.15;;;;;;;15.79;61.84;100211.00;4449942;32;33027;-64
2022/10/19 07:30:43;;;;;;;5.68;4.20;;;;;;;16.01;61.16;100215.31;4444826;32;35017;-64
2022/10/19 07:33:10;;;;;;;10.55;6.37;;;;;;;15.90;61.47;100212.72;4443015;32;33375;-62
2022/10/19 07:35:38;;;;;;;5.57;3.30;;;;;;;16.30;60.07;100211.81;4441773;32;32322;-64
2022/10/19 07:38:05;;;;;;;6.25;4.47;;;;;;;15.95;61.31;100212.31;4447360;32;35366;-63
2022/10/19 07:40:34;;;;;;;6.95;4.30;;;;;;;16.03;61.00;100221.44;4436317;32;33826;-62
2022/10/19 07:43:01;;;;;;;6.03;4.50;;;;;;;15.68;61.89;100224.59;4447192;32;34715;-62
2022/10/19 07:45:29;;;;;;;9.20;4.57;;;;;;;16.24;60.36;100236.69;4434947;32;34071;-62
2022/10/19 07:47:57;;;;;;;5.30;3.08;;;;;;;16.15;60.42;100226.72;4439696;32;34683;-64
2022/10/19 07:50:26;;;;;;;5.47;3.92;;;;;;;15.95;60.92;100225.81;4445783;32;34008;-64
2022/10/19 07:52:54;;;;;;;6.18;3.45;;;;;;;16.32;59.79;100228.75;4440040;32;32116;-63
2022/10/19 07:55:21;;;;;;;7.60;4.78;;;;;;;16.58;59.18;100229.03;4439712;32;34077;-64
2022/10/19 07:57:49;;;;;;;8.32;3.97;;;;;;;16.83;58.77;100221.41;4446543;32;35219;-64
2022/10/19 08:00:16;;;;;;;6.78;4.07;;;;;;;16.83;58.76;100218.72;4447324;32;34022;-64
2022/10/19 08:02:44;;;;;;;6.97;3.10;;;;;;;17.02;58.26;100217.84;4448125;32;34096;-62
2022/10/19 08:05:32;;;;;;;8.02;3.45;;;;;;;17.42;56.93;100214.88;4445542;32;34910;-63
2022/10/19 08:08:00;;;;;;;4.65;3.28;;;;;;;16.98;57.77;100206.44;4447705;32;34027;-64
2022/10/19 08:10:27;;;;;;;4.43;3.37;;;;;;;17.44;56.74;100207.47;4445511;32;34770;-64
2022/10/19 08:12:55;;;;;;;7.87;4.10;;;;;;;17.69;55.55;100214.94;4442093;32;34500;-63
2022/10/19 08:15:24;;;;;;;7.00;3.83;;;;;;;18.12;54.59;100201.75;4451033;32;32822;-64
2022/10/19 08:17:52;;;;;;;3.47;2.67;;;;;;;17.77;55.14;100208.78;4447567;32;34108;-63
2022/10/19 08:20:19;;;;;;;6.80;2.87;;;;;;;18.31;53.97;100215.19;4442614;32;34678;-64
2022/10/19 08:22:47;;;;;;;2.65;1.95;;;;;;;18.41;53.37;100198.00;4448558;32;33337;-64
2022/10/19 08:25:14;;;;;;;4.45;3.45;;;;;;;18.51;53.13;100204.19;4450949;32;34749;-63
2022/10/19 08:27:42;;;;;;;6.82;4.12;;;;;;;18.75;52.61;100207.19;4446752;32;32485;-64
2022/10/19 08:30:10;;;;;;;3.83;2.53;;;;;;;18.36;54.08;100209.28;4448727;32;34108;-64
2022/10/19 08:32:37;;;;;;;6.30;3.33;;;;;;;18.50;53.94;100213.34;4446048;32;33600;-64
2022/10/19 08:35:05;;;;;;;4.05;2.60;;;;;;;18.92;52.76;100210.88;4444384;32;33820;-64
2022/10/19 08:37:37;;;;;;;3.75;2.72;;;;;;;18.50;53.93;100205.22;4438794;32;34041;-64
2022/10/19 08:40:18;;;;;;;4.37;2.78;;;;;;;18.45;53.71;100208.38;4448308;32;33792;-62
2022/10/19 08:43:03;;;;;;;3.85;3.15;;;;;;;18.81;52.31;100211.09;4445851;32;33250;-69
2022/10/19 08:45:33;;;;;;;3.53;2.42;;;;;;;18.78;52.79;100212.28;4439448;32;33896;-68
2022/10/19 08:48:26;;;;;;;4.87;3.30;;;;;;;19.08;52.08;100218.28;4443830;32;34454;-68
2022/10/19 08:50:56;;;;;;;5.10;2.58;;;;;;;19.03;52.11;100212.47;4442166;32;32638;-64
2022/10/19 08:53:32;;;;;;;4.53;2.58;;;;;;;18.79;53.24;100211.28;4449250;32;33523;-64
2022/10/19 08:56:35;;;;;;;5.85;3.30;;;;;;;19.08;51.72;100212.84;4436357;32;33942;-64
2022/10/19 08:59:56;;;;;;;10.20;3.55;;;;;;;19.43;50.83;100213.78;4443349;32;35230;-63
2022/10/19 09:02:33;;;;;;;6.43;2.58;;;;;;;19.54;50.61;100214.34;4399923;32;33911;-64
2022/10/19 09:05:43;;;;;;;3.60;1.98;;;;;;;19.17;50.92;100211.06;4435464;32;31989;-64
2022/10/19 09:08:11;;;;;;;3.20;2.03;;;;;;;19.00;51.73;100210.06;4436105;32;34859;-64
2022/10/19 09:10:48;;;;;;;4.45;2.80;;;;;;;19.28;51.14;100208.91;4425003;32;33904;-64
2022/10/19 09:13:22;;;;;;;4.72;2.20;;;;;;;19.07;51.07;100206.59;4432063;32;140548;-64
2022/10/19 09:15:50;;;;;;;6.53;2.95;;;;;;;19.45;50.08;100209.03;4436980;32;34653;-64
2022/10/19 09:18:22;;;;;;;4.12;2.40;;;;;;;19.43;49.37;100205.63;4432899;32;33676;-66
2022/10/19 09:20:56;;;;;;;6.22;2.72;;;;;;;19.41;49.47;100211.19;4448839;32;32658;-62
2022/10/19 09:23:38;;;;;;;3.97;2.07;;;;;;;19.21;50.11;100202.44;4446745;32;34149;-62
2022/10/19 09:26:17;;;;;;;2.50;1.77;;;;;;;18.89;50.42;100204.91;4440852;32;34621;-62
2022/10/19 09:28:57;;;;;;;1.77;1.08;;;;;;;18.94;51.07;100210.69;4449769;32;33984;-63
2022/10/19 09:31:33;;;;;;;3.90;2.33;;;;;;;20.18;47.88;100203.09;4437824;32;35120;-62
2022/10/19 09:34:12;;;;;;;5.37;3.15;;;;;;;20.07;48.07;100219.72;4450188;32;33766;-62
2022/10/19 09:36:43;;;;;;;3.33;2.17;;;;;;;19.91;48.42;100223.22;4443162;32;33891;-63
2022/10/19 09:39:17;;;;;;;3.78;2.08;;;;;;;19.98;47.66;100213.41;4441920;32;33640;-63
2022/10/19 09:42:17;;;;;;;5.62;2.20;;;;;;;19.47;48.52;100218.72;4440089;32;34896;-63
2022/10/19 09:44:45;;;;;;;4.62;2.53;;;;;;;19.72;48.18;100219.72;4450673;32;35017;-63
2022/10/19 09:47:35;;;;;;;4.53;2.15;;;;;;;19.71;47.64;100220.75;4446412;32;33283;-63
2022/10/19 09:50:12;;;;;;;2.17;1.58;;;;;;;19.69;48.41;100220.06;4432808;32;34972;-63
2022/10/19 09:52:41;;;;;;;6.45;2.47;;;;;;;19.68;47.71;100220.22;4443190;32;34231;-64
2022/10/19 09:55:12;;;;;;;2.60;1.75;;;;;;;19.67;48.27;100222.06;4447780;32;34978;-64
2022/10/19 09:57:43;;;;;;;6.53;2.40;;;;;;;19.63;47.97;100223.37;4448043;32;32561;-63
2022/10/19 10:00:24;;;;;;;4.47;2.33;;;;;;;19.21;47.77;100224.13;4450687;32;34115;-64
2022/10/19 10:02:54;;;;;;;2.22;1.12;;;;;;;19.28;47.74;100214.34;4428840;32;32312;-64
2022/10/19 10:05:33;;;;;;;3.53;1.87;;;;;;;18.67;44.74;100212.47;4445902;32;33341;-63
2022/10/19 10:08:02;;;;;;;3.72;2.28;;;;;;;19.08;45.17;100212.84;4434082;32;33437;-64
2022/10/19 10:10:36;;;;;;;3.17;2.08;;;;;;;19.48;44.87;100212.25;4444126;32;33875;-65
2022/10/19 10:13:04;;;;;;;3.10;1.60;;;;;;;19.54;45.08;100205.34;4450704;32;32822;-63
2022/10/19 10:15:42;;;;;;;2.47;1.33;;;;;;;19.55;44.81;100205.19;4448296;32;33212;-64
2022/10/19 10:18:14;;;;;;;3.20;1.60;;;;;;;19.37;45.61;100206.28;4446508;32;34855;-64
2022/10/19 10:20:55;;;;;;;3.20;1.20;;;;;;;19.93;45.00;100210.31;4435633;32;33768;-64
2022/10/19 10:23:26;;;;;;;2.87;1.80;;;;;;;19.72;43.57;100211.59;4446995;32;34094;-64
2022/10/19 10:25:56;;;;;;;2.35;1.42;;;;;;;20.11;43.31;100202.91;4452125;32;32412;-64
2022/10/19 10:28:26;;;;;;;4.43;1.73;;;;;;;20.16;42.84;100197.84;4450494;32;34620;-64
2022/10/19 10:30:59;;;;;;;3.00;1.87;;;;;;;19.37;44.77;100198.12;4448707;32;34749;-63
2022/10/19 10:33:28;;;;;;;2.87;1.62;;;;;;;19.69;44.75;100190.19;4448778;32;34195;-64
2022/10/19 10:36:12;;;;;;;;;;;;;;;19.94;43.14;100185.72;4443520;32;33616;-64
2022/10/19 10:38:44;;;;;;;4.10;1.62;;;;;;;20.09;43.54;100185.91;4448927;32;32859;-64
2022/10/19 10:41:16;;;;;;;5.62;2.50;;;;;;;20.50;42.85;100177.84;4450967;32;33864;-64
2022/10/19 10:43:53;;;;;;;3.00;1.75;;;;;;;20.10;43.27;100186.78;4434709;32;35411;-64
2022/10/19 10:46:27;;;;;;;2.60;1.37;;;;;;;20.28;42.45;100178.47;4443778;32;33289;-66
2022/10/19 10:48:57;;;;;;;3.85;2.67;;;;;;;20.27;42.38;100179.50;4435024;32;32988;-63
2022/10/19 10:51:39;;;;;;;2.83;1.33;;;;;;;20.00;43.45;100174.19;4447707;32;35137;-63
2022/10/19 10:54:25;;;;;;;4.12;2.37;;;;;;;20.05;43.53;100164.69;4449490;32;32817;-64
2022/10/19 10:57:05;;;;;;;2.28;1.27;;;;;;;19.89;43.05;100170.91;4450240;32;33869;-66
2022/10/19 10:59:39;;;;;;;2.47;1.00;;;;;;;19.96;40.30;100156.50;4434284;32;33286;-65
2022/10/19 11:02:34;;;;;;;2.17;0.95;;;;;;;20.42;37.95;100153.38;4449673;32;33871;-65
2022/10/19 11:05:27;;;;;;;1.45;0.90;;;;;;;20.12;37.42;100158.41;4444152;32;34331;-64
2022/10/19 11:08:24;;;;;;;1.10;0.80;;;;;;;19.82;38.60;100154.41;4426290;32;34786;-64
2022/10/19 11:11:01;;;;;;;0.98;0.62;;;;;;;20.21;37.88;100145.69;4443940;32;32445;-64
2022/10/19 11:14:14;;;;;;;1.70;1.00;;;;;;;20.25;37.93;100145.19;4430355;32;34009;-63
2022/10/19 11:16:44;;;;;;;2.05;1.48;;;;;;;20.34;38.75;100146.03;4443351;32;32796;-64
2022/10/19 11:19:17;;;;;;;3.70;1.65;;;;;;;20.59;38.63;100146.94;4439528;32;33892;-65
2022/10/19 11:21:59;;;;;;;2.25;1.27;;;;;;;20.10;39.91;100135.16;4437648;32;32959;-63
2022/10/19 11:24:37;;;;;;;3.35;1.35;;;;;;;20.27;39.57;100136.88;4432805;32;32615;-63
2022/10/19 11:27:27;;;;;;;3.15;1.37;;;;;;;20.28;39.70;100137.72;4439362;32;33012;-64
2022/10/19 11:30:11;;;;;;;2.90;1.17;;;;;;;19.91;40.56;100139.84;4439639;32;34643;-63
2022/10/19 11:33:00;;;;;;;2.20;1.25;;;;;;;20.10;40.95;100136.00;4439786;32;34378;-63
2022/10/19 11:35:31;;;;;;;1.55;1.02;;;;;;;20.82;39.79;100124.50;4443473;32;33987;-65
2022/10/19 11:38:17;;;;;;;2.75;1.48;;;;;;;20.48;40.85;100134.53;4447044;32;32708;-64
2022/10/19 11:41:01;;;;;;;5.35;1.87;;;;;;;20.23;41.83;100125.47;4443406;32;34034;-64
2022/10/19 11:43:50;;;;;;;4.32;1.85;;;;;;;20.38;41.42;100120.22;4444334;32;34293;-63
2022/10/19 11:46:35;;;;;;;2.85;1.90;;;;;;;20.27;42.06;100120.56;4440835;32;33868;-64
2022/10/19 11:49:22;;;;;;;2.58;1.23;;;;;;;19.87;41.56;100127.63;4439376;32;33789;-62